createdAt,value
2017-08-21T00:01:59.985Z,15.10
2017-08-21T00:04:27.540Z,15.00
2017-08-21T00:06:55.101Z,14.90
2017-08-21T00:09:22.633Z,15.00
2017-08-21T00:11:50.173Z,15.00
2017-08-21T00:14:17.741Z,15.00
2017-08-21T00:16:45.288Z,15.10
2017-08-21T00:19:14.561Z,15.20
2017-08-21T00:21:42.179Z,15.30
2017-08-21T00:24:09.713Z,15.30
2017-08-21T00:26:37.254Z,15.20
2017-08-21T00:29:04.853Z,15.10
2017-08-21T00:31:32.396Z,15.30
2017-08-21T00:33:59.937Z,15.40
2017-08-21T00:36:27.841Z,15.40
2017-08-21T00:39:25.948Z,15.50
2017-08-21T00:41:53.573Z,15.60
2017-08-21T00:44:21.117Z,15.60
2017-08-21T00:46:48.653Z,15.60
2017-08-21T00:49:16.429Z,15.40
2017-08-21T00:51:43.973Z,15.40
2017-08-21T00:54:11.499Z,15.30
2017-08-21T00:56:39.056Z,15.20
2017-08-21T00:59:06.601Z,15.10
2017-08-21T01:01:34.137Z,15.10
2017-08-21T01:04:01.742Z,14.90
2017-08-21T01:06:29.307Z,14.70
2017-08-21T01:08:56.852Z,14.80
2017-08-21T01:11:24.417Z,14.80
2017-08-21T01:13:51.952Z,14.80
2017-08-21T01:16:19.496Z,14.90
2017-08-21T01:18:47.057Z,14.90
2017-08-21T01:21:16.381Z,14.80
2017-08-21T01:23:43.917Z,14.70
2017-08-21T01:26:11.525Z,14.80
2017-08-21T01:28:39.066Z,14.70
2017-08-21T01:31:06.614Z,14.70
2017-08-21T01:33:34.377Z,14.60
2017-08-21T01:36:01.921Z,14.50
2017-08-21T01:38:29.472Z,14.60
2017-08-21T01:40:57.037Z,14.50
2017-08-21T01:43:24.580Z,14.40
2017-08-21T01:45:52.129Z,14.40
2017-08-21T01:48:19.751Z,14.40
2017-08-21T01:50:47.288Z,14.30
2017-08-21T01:53:16.407Z,14.30
2017-08-21T01:55:43.968Z,14.30
2017-08-21T01:58:11.516Z,14.30
2017-08-21T02:00:39.056Z,14.10
2017-08-21T02:03:06.625Z,14.20
2017-08-21T02:05:34.165Z,14.20
2017-08-21T02:08:01.704Z,14.10
2017-08-21T02:10:29.309Z,14.10
2017-08-21T02:12:56.844Z,14.20
2017-08-21T02:15:24.389Z,14.20
2017-08-21T02:17:51.969Z,14.20
2017-08-21T02:20:19.509Z,14.10
2017-08-21T02:22:47.048Z,14.10
2017-08-21T02:25:16.432Z,14.10
2017-08-21T02:27:43.973Z,14.00
2017-08-21T02:30:11.520Z,14.10
2017-08-21T02:32:39.877Z,14.10
2017-08-21T02:35:07.431Z,14.10
2017-08-21T02:37:34.977Z,14.10
2017-08-21T02:40:03.164Z,14.20
2017-08-21T02:42:30.700Z,14.20
2017-08-21T02:44:58.237Z,14.20
2017-08-21T02:47:25.805Z,14.10
2017-08-21T02:49:53.355Z,14.00
2017-08-21T02:52:20.908Z,14.10
2017-08-21T02:54:48.512Z,14.00
2017-08-21T02:57:16.414Z,13.90
2017-08-21T02:59:43.961Z,13.90
2017-08-21T03:02:11.536Z,13.90
2017-08-21T03:04:39.853Z,13.90
2017-08-21T03:07:07.400Z,13.90
2017-08-21T03:09:34.968Z,13.90
2017-08-21T03:12:02.513Z,13.90
2017-08-21T03:14:30.050Z,14.00
2017-08-21T03:16:58.409Z,14.20
2017-08-21T03:19:25.950Z,14.20
2017-08-21T03:21:53.489Z,14.10
2017-08-21T03:24:21.056Z,14.10
2017-08-21T03:26:48.617Z,14.00
2017-08-21T03:29:16.420Z,14.00
2017-08-21T03:31:43.992Z,14.00
2017-08-21T03:34:11.534Z,14.10
2017-08-21T03:36:39.077Z,14.10
2017-08-21T03:39:06.675Z,14.20
2017-08-21T03:41:34.553Z,14.20
2017-08-21T03:44:02.093Z,14.30
2017-08-21T03:46:29.713Z,14.30
2017-08-21T03:48:57.255Z,14.40
2017-08-21T03:51:24.793Z,14.40
2017-08-21T03:53:52.371Z,14.50
2017-08-21T03:56:19.920Z,14.50
2017-08-21T03:58:47.461Z,14.60
2017-08-21T04:01:16.593Z,14.60
2017-08-21T04:03:44.126Z,14.60
2017-08-21T04:06:11.669Z,14.70
2017-08-21T04:08:39.237Z,14.60
2017-08-21T04:11:06.782Z,14.60
2017-08-21T04:13:34.320Z,14.60
2017-08-21T04:16:01.880Z,14.70
2017-08-21T04:18:29.419Z,14.70
2017-08-21T04:20:56.971Z,14.70
2017-08-21T04:23:24.608Z,14.70
2017-08-21T04:25:52.156Z,14.60
2017-08-21T04:28:19.700Z,14.30
2017-08-21T04:30:47.259Z,14.30
2017-08-21T04:33:16.462Z,14.30
2017-08-21T04:35:44.005Z,14.10
2017-08-21T04:38:11.560Z,14.00
2017-08-21T04:40:39.104Z,14.00
2017-08-21T04:43:07.084Z,14.00
2017-08-21T04:45:34.677Z,13.90
2017-08-21T04:48:02.221Z,13.80
2017-08-21T04:50:29.760Z,13.90
2017-08-21T04:52:57.356Z,14.00
2017-08-21T04:55:24.900Z,14.00
2017-08-21T04:57:52.437Z,14.00
2017-08-21T05:00:20.024Z,14.10
2017-08-21T05:02:47.569Z,14.20
2017-08-21T05:05:16.468Z,14.20
2017-08-21T05:07:44.074Z,14.30
2017-08-21T05:10:11.617Z,14.30
2017-08-21T05:12:39.153Z,14.30
2017-08-21T05:15:06.726Z,14.40
2017-08-21T05:17:34.297Z,14.40
2017-08-21T05:20:02.611Z,14.80
2017-08-21T05:22:30.179Z,14.70
2017-08-21T05:24:57.726Z,14.90
2017-08-21T05:27:25.273Z,14.90
2017-08-21T05:29:52.869Z,14.90
2017-08-21T05:32:20.414Z,14.90
2017-08-21T05:34:47.957Z,14.80
2017-08-21T05:37:16.509Z,14.90
2017-08-21T05:39:44.049Z,14.90
2017-08-21T05:42:11.596Z,15.00
2017-08-21T05:44:39.177Z,15.00
2017-08-21T05:47:06.711Z,15.10
2017-08-21T05:49:34.256Z,15.30
2017-08-21T05:52:01.852Z,15.40
2017-08-21T05:54:29.397Z,15.40
2017-08-21T05:56:56.941Z,15.40
2017-08-21T05:59:24.549Z,15.40
2017-08-21T06:01:52.080Z,15.40
2017-08-21T06:04:19.617Z,15.50
2017-08-21T06:06:47.185Z,15.60
2017-08-21T06:09:16.406Z,15.70
2017-08-21T06:11:43.958Z,15.80
2017-08-21T06:14:11.544Z,15.90
2017-08-21T06:16:39.093Z,16.00
2017-08-21T06:19:06.637Z,16.10
2017-08-21T06:21:34.204Z,16.10
2017-08-21T06:24:01.744Z,16.20
2017-08-21T06:26:29.295Z,16.30
2017-08-21T06:28:56.872Z,16.30
2017-08-21T06:31:24.409Z,16.40
2017-08-21T06:33:51.950Z,16.40
2017-08-21T06:36:19.545Z,16.50
2017-08-21T06:38:47.089Z,16.60
2017-08-21T06:41:15.613Z,16.80
2017-08-21T06:43:43.185Z,16.90
2017-08-21T06:46:10.964Z,17.00
2017-08-21T06:48:38.505Z,17.10
2017-08-21T06:51:06.076Z,17.20
2017-08-21T06:53:33.616Z,17.40
2017-08-21T06:56:01.149Z,17.40
2017-08-21T06:58:28.776Z,17.50
2017-08-21T07:00:56.316Z,17.70
2017-08-21T07:03:23.857Z,18.00
2017-08-21T07:05:51.448Z,18.20
2017-08-21T07:08:19.021Z,18.20
2017-08-21T07:10:46.875Z,18.40
2017-08-21T07:13:25.843Z,19.50
2017-08-21T07:18:36.169Z,19.90
2017-08-21T07:21:03.745Z,20.00
2017-08-21T07:23:31.288Z,20.50
2017-08-21T07:25:59.621Z,21.10
2017-08-21T07:28:27.165Z,21.10
2017-08-21T07:30:54.708Z,21.40
2017-08-21T07:33:22.301Z,21.90
2017-08-21T07:35:49.964Z,22.20
2017-08-21T07:38:17.538Z,22.40
2017-08-21T07:40:45.165Z,22.40
2017-08-21T07:43:12.731Z,22.30
2017-08-21T07:45:40.271Z,22.40
2017-08-21T07:48:08.221Z,22.00
2017-08-21T07:50:35.760Z,22.10
2017-08-21T07:53:03.309Z,22.00
2017-08-21T07:55:30.923Z,21.80
2017-08-21T07:57:58.568Z,21.40
2017-08-21T08:00:26.272Z,20.90
2017-08-21T08:02:53.861Z,20.70
2017-08-21T08:05:21.484Z,21.10
2017-08-21T08:07:49.046Z,21.20
2017-08-21T08:10:16.687Z,21.60
2017-08-21T08:12:44.243Z,22.00
2017-08-21T08:15:11.780Z,23.00
2017-08-21T08:17:39.377Z,24.40
2017-08-21T08:20:06.917Z,24.20
2017-08-21T08:22:34.470Z,24.90
2017-08-21T08:25:02.085Z,25.20
2017-08-21T08:27:29.629Z,26.10
2017-08-21T08:29:57.177Z,27.70
2017-08-21T08:32:24.743Z,27.60
2017-08-21T08:34:52.284Z,27.00
2017-08-21T08:37:19.820Z,27.20
2017-08-21T08:39:47.531Z,27.80
2017-08-21T08:42:16.416Z,28.10
2017-08-21T08:44:43.997Z,28.60
2017-08-21T08:47:11.743Z,28.10
2017-08-21T08:49:39.563Z,28.50
2017-08-21T08:52:07.135Z,28.90
2017-08-21T08:54:34.723Z,29.40
2017-08-21T08:57:02.281Z,29.90
2017-08-21T08:59:29.887Z,30.00
2017-08-21T09:01:57.757Z,30.30
2017-08-21T09:04:25.309Z,30.60
2017-08-21T09:06:52.901Z,31.50
2017-08-21T09:09:20.529Z,31.50
2017-08-21T09:11:48.118Z,31.70
2017-08-21T09:14:16.417Z,33.30
2017-08-21T09:16:44.033Z,34.30
2017-08-21T09:19:11.612Z,35.80
2017-08-21T09:21:39.320Z,35.60
2017-08-21T09:24:07.042Z,35.40
2017-08-21T09:26:35.363Z,33.60
2017-08-21T09:29:03.333Z,33.60
2017-08-21T09:31:30.962Z,34.70
2017-08-21T09:33:58.569Z,35.40
2017-08-21T09:36:26.132Z,35.30
2017-08-21T09:38:53.768Z,35.70
2017-08-21T09:41:21.326Z,35.10
2017-08-21T09:43:48.932Z,34.60
2017-08-21T09:46:16.562Z,34.50
2017-08-21T09:48:44.161Z,34.60
2017-08-21T09:51:12.174Z,35.00
2017-08-21T09:53:39.840Z,35.30
2017-08-21T09:56:07.414Z,34.80
2017-08-21T09:58:34.964Z,34.00
2017-08-21T10:01:02.540Z,33.30
2017-08-21T10:03:31.345Z,33.50
2017-08-21T10:05:58.906Z,32.70
2017-08-21T10:08:26.478Z,32.30
2017-08-21T10:10:54.025Z,32.60
2017-08-21T10:13:21.654Z,32.20
2017-08-21T10:15:49.298Z,31.50
2017-08-21T10:18:16.899Z,30.70
2017-08-21T10:20:44.485Z,30.20
2017-08-21T10:23:12.126Z,29.50
2017-08-21T10:25:39.701Z,29.20
2017-08-21T10:28:07.863Z,28.80
2017-08-21T10:30:35.496Z,28.40
2017-08-21T10:33:03.073Z,28.00
2017-08-21T10:35:30.633Z,27.80
2017-08-21T10:37:58.282Z,27.40
2017-08-21T10:40:25.886Z,27.00
2017-08-21T10:42:53.445Z,26.80
2017-08-21T10:45:21.030Z,26.30
2017-08-21T10:47:48.581Z,25.90
2017-08-21T10:50:16.435Z,25.50
2017-08-21T10:52:44.688Z,25.30
2017-08-21T10:55:12.233Z,25.10
2017-08-21T10:57:39.814Z,24.90
2017-08-21T11:00:07.412Z,24.70
2017-08-21T11:02:34.965Z,24.50
2017-08-21T11:05:02.509Z,24.40
2017-08-21T11:07:30.093Z,24.60
2017-08-21T11:09:57.637Z,24.50
2017-08-21T11:12:25.182Z,24.10
2017-08-21T11:14:52.765Z,23.80
2017-08-21T11:17:20.309Z,23.20
2017-08-21T11:19:47.917Z,23.20
2017-08-21T11:22:15.920Z,23.30
2017-08-21T11:24:43.481Z,23.10
2017-08-21T11:27:11.022Z,23.10
2017-08-21T11:29:38.641Z,23.30
2017-08-21T11:32:06.185Z,23.60
2017-08-21T11:34:33.749Z,23.90
2017-08-21T11:37:01.338Z,24.20
2017-08-21T11:39:28.876Z,24.20
2017-08-21T11:41:56.413Z,24.30
2017-08-21T11:44:24.169Z,24.30
2017-08-21T11:46:51.719Z,24.40
2017-08-21T11:49:19.298Z,24.30
2017-08-21T11:51:46.862Z,24.20
2017-08-21T11:54:31.602Z,24.10
2017-08-21T12:00:45.342Z,24.30
2017-08-21T12:03:23.673Z,24.20
2017-08-21T12:11:36.239Z,23.60
2017-08-21T12:14:03.777Z,23.50
2017-08-21T12:16:31.324Z,23.60
2017-08-21T12:18:59.097Z,23.80
2017-08-21T12:21:26.634Z,23.80
2017-08-21T12:23:55.312Z,23.90
2017-08-21T12:26:22.881Z,24.20
2017-08-21T12:28:50.421Z,24.30
2017-08-21T12:31:17.974Z,24.20
2017-08-21T12:33:45.784Z,24.30
2017-08-21T12:36:24.249Z,24.40
2017-08-21T12:41:23.549Z,24.20
2017-08-21T12:43:51.128Z,24.00
2017-08-21T12:46:19.253Z,23.80
2017-08-21T12:48:46.837Z,23.70
2017-08-21T12:51:16.293Z,23.60
2017-08-21T12:53:43.852Z,23.80
2017-08-21T12:56:11.669Z,24.00
2017-08-21T12:58:39.231Z,24.10
2017-08-21T13:01:06.798Z,24.20
2017-08-21T13:03:34.418Z,24.10
2017-08-21T13:06:02.006Z,24.10
2017-08-21T13:08:29.617Z,24.20
2017-08-21T13:10:57.201Z,24.20
2017-08-21T13:13:24.761Z,24.10
2017-08-21T13:15:52.348Z,23.90
2017-08-21T13:18:19.945Z,24.00
2017-08-21T13:20:47.549Z,23.80
2017-08-21T13:23:16.533Z,23.80
2017-08-21T13:25:44.157Z,23.70
2017-08-21T13:28:12.619Z,23.70
2017-08-21T13:30:40.321Z,23.70
2017-08-21T13:33:07.905Z,23.50
2017-08-21T13:35:35.524Z,23.70
2017-08-21T13:38:03.081Z,23.70
2017-08-21T13:40:30.736Z,23.60
2017-08-21T13:42:58.321Z,23.70
2017-08-21T13:45:25.870Z,23.60
2017-08-21T13:47:53.490Z,23.70
2017-08-21T13:50:21.037Z,23.70
2017-08-21T13:52:48.625Z,23.40
2017-08-21T13:55:16.810Z,23.30
2017-08-21T13:57:44.871Z,23.30
2017-08-21T14:00:12.432Z,23.40
2017-08-21T14:02:40.056Z,23.60
2017-08-21T14:05:07.624Z,23.50
2017-08-21T14:07:35.179Z,23.30
2017-08-21T14:10:02.804Z,23.20
2017-08-21T14:12:30.402Z,23.10
2017-08-21T14:14:57.993Z,23.10
2017-08-21T14:17:25.593Z,23.30
2017-08-21T14:19:53.161Z,23.30
2017-08-21T14:22:20.761Z,23.40
2017-08-21T14:24:48.471Z,23.30
2017-08-21T14:27:16.420Z,23.30
2017-08-21T14:29:43.970Z,23.30
2017-08-21T14:32:11.614Z,23.40
2017-08-21T14:34:39.193Z,23.40
2017-08-21T14:37:06.775Z,23.40
2017-08-21T14:39:34.434Z,23.50
2017-08-21T14:42:02.025Z,23.70
2017-08-21T14:44:29.602Z,23.70
2017-08-21T14:46:57.414Z,23.70
2017-08-21T14:49:25.017Z,23.70
2017-08-21T14:51:52.602Z,23.60
2017-08-21T14:54:20.254Z,23.60
2017-08-21T14:56:47.836Z,23.50
2017-08-21T14:59:16.026Z,23.30
2017-08-21T15:01:43.614Z,23.10
2017-08-21T15:04:11.935Z,22.70
2017-08-21T15:06:39.519Z,22.70
2017-08-21T15:09:07.117Z,22.60
2017-08-21T15:11:34.681Z,22.40
2017-08-21T15:14:02.330Z,22.50
2017-08-21T15:16:29.971Z,22.70
2017-08-21T15:18:57.527Z,22.70
2017-08-21T15:21:25.082Z,22.70
2017-08-21T15:23:53.245Z,22.60
2017-08-21T15:26:20.797Z,22.70
2017-08-21T15:28:48.386Z,22.80
2017-08-21T15:31:16.432Z,23.10
2017-08-21T15:33:44.005Z,23.00
2017-08-21T15:36:11.546Z,22.90
2017-08-21T15:38:39.184Z,22.70
2017-08-21T15:41:06.744Z,22.40
2017-08-21T15:43:34.293Z,22.30
2017-08-21T15:46:01.861Z,22.40
2017-08-21T15:48:29.450Z,22.50
2017-08-21T15:50:56.996Z,22.50
2017-08-21T15:53:24.627Z,22.50
2017-08-21T15:55:52.197Z,22.70
2017-08-21T15:58:19.788Z,22.80
2017-08-21T16:00:47.907Z,22.80
2017-08-21T16:03:17.601Z,22.90
2017-08-21T16:05:45.160Z,23.00
2017-08-21T16:08:13.682Z,23.10
2017-08-21T16:10:41.269Z,23.00
2017-08-21T16:13:08.813Z,22.90
2017-08-21T16:15:36.386Z,22.80
2017-08-21T16:18:03.929Z,22.90
2017-08-21T16:20:31.489Z,22.80
2017-08-21T16:22:59.093Z,22.90
2017-08-21T16:25:26.869Z,22.90
2017-08-21T16:27:54.442Z,22.70
2017-08-21T16:30:22.036Z,22.60
2017-08-21T16:32:49.642Z,22.40
2017-08-21T16:35:17.207Z,22.20
2017-08-21T16:37:44.789Z,21.90
2017-08-21T16:40:12.452Z,21.70
2017-08-21T16:42:40.023Z,21.60
2017-08-21T16:45:07.646Z,21.40
2017-08-21T16:47:35.233Z,21.10
2017-08-21T16:50:02.786Z,21.00
2017-08-21T16:52:30.433Z,21.00
2017-08-21T16:54:57.983Z,20.90
2017-08-21T16:57:25.585Z,20.70
2017-08-21T16:59:54.022Z,20.70
2017-08-21T17:02:21.981Z,20.50
2017-08-21T17:04:49.534Z,20.50
2017-08-21T17:07:17.174Z,20.40
2017-08-21T17:09:45.850Z,20.40
2017-08-21T17:12:15.193Z,20.20
2017-08-21T17:14:42.775Z,20.20
2017-08-21T17:17:10.325Z,20.20
2017-08-21T17:19:37.867Z,20.20
2017-08-21T17:22:05.433Z,20.20
2017-08-21T17:24:32.984Z,20.10
2017-08-21T17:27:00.577Z,20.00
2017-08-21T17:29:28.210Z,19.90
2017-08-21T17:31:55.765Z,19.90
2017-08-21T17:34:23.324Z,19.90
2017-08-21T17:36:50.940Z,19.90
2017-08-21T17:39:18.505Z,19.80
2017-08-21T17:41:46.052Z,19.70
2017-08-21T17:44:14.603Z,19.70
2017-08-21T17:46:42.179Z,19.60
2017-08-21T17:49:09.735Z,19.50
2017-08-21T17:51:37.344Z,19.40
2017-08-21T17:54:04.888Z,19.40
2017-08-21T17:56:32.437Z,19.40
2017-08-21T17:59:00.030Z,19.40
2017-08-21T18:01:27.598Z,19.30
2017-08-21T18:03:55.485Z,19.30
2017-08-21T18:06:23.082Z,19.20
2017-08-21T18:08:50.653Z,19.20
2017-08-21T18:11:18.197Z,19.10
2017-08-21T18:13:45.888Z,19.00
2017-08-21T18:16:25.656Z,18.90
2017-08-21T18:23:32.682Z,18.90
2017-08-21T18:26:00.225Z,18.70
2017-08-21T18:28:27.821Z,18.60
2017-08-21T18:30:55.413Z,18.60
2017-08-21T18:33:22.962Z,18.50
2017-08-21T18:35:50.512Z,18.40
2017-08-21T18:38:18.078Z,18.30
2017-08-21T18:40:45.661Z,18.30
2017-08-21T18:43:24.603Z,18.20
2017-08-21T18:48:52.633Z,18.10
2017-08-21T18:51:20.239Z,18.00
2017-08-21T18:53:47.785Z,18.00
2017-08-21T18:56:16.492Z,17.90
2017-08-21T18:58:44.050Z,17.90
2017-08-21T19:01:11.604Z,17.80
2017-08-21T19:03:39.176Z,17.80
2017-08-21T19:06:07.069Z,17.60
2017-08-21T19:08:36.634Z,17.60
2017-08-21T19:11:04.261Z,17.50
2017-08-21T19:13:31.812Z,17.50
2017-08-21T19:15:59.511Z,17.50
2017-08-21T19:18:27.156Z,17.40
2017-08-21T19:20:54.739Z,17.30
2017-08-21T19:23:22.295Z,17.30
2017-08-21T19:25:49.860Z,17.20
2017-08-21T19:28:17.429Z,17.10
2017-08-21T19:30:45.001Z,17.00
2017-08-21T19:33:14.289Z,16.80
2017-08-21T19:35:41.984Z,16.80
2017-08-21T19:38:09.670Z,16.70
2017-08-21T19:40:37.711Z,16.60
2017-08-21T19:43:05.320Z,16.40
2017-08-21T19:45:32.947Z,16.40
2017-08-21T19:48:00.560Z,16.40
2017-08-21T19:50:28.153Z,16.40
2017-08-21T19:52:55.847Z,16.30
2017-08-21T19:55:23.483Z,16.20
2017-08-21T19:57:51.028Z,16.20
2017-08-21T20:00:18.577Z,16.20
2017-08-21T20:02:46.141Z,16.30
2017-08-21T20:05:16.304Z,16.30
2017-08-21T20:07:44.421Z,16.30
2017-08-21T20:10:11.985Z,16.20
2017-08-21T20:12:39.529Z,16.20
2017-08-21T20:15:07.068Z,16.20
2017-08-21T20:17:34.693Z,16.00
2017-08-21T20:20:02.237Z,16.00
2017-08-21T20:22:29.789Z,16.00
2017-08-21T20:24:57.365Z,15.90
2017-08-21T20:27:24.964Z,15.80
2017-08-21T20:29:52.513Z,15.80
2017-08-21T20:32:20.082Z,15.90
2017-08-21T20:34:47.621Z,15.90
2017-08-21T20:37:17.221Z,15.80
2017-08-21T20:39:45.248Z,15.80
2017-08-21T20:42:12.800Z,15.70
2017-08-21T20:44:40.340Z,15.70
2017-08-21T20:47:08.029Z,15.60
2017-08-21T20:49:35.663Z,15.60
2017-08-21T20:52:03.269Z,15.60
2017-08-21T20:54:30.831Z,15.50
2017-08-21T20:56:58.408Z,15.40
2017-08-21T20:59:25.956Z,15.40
2017-08-21T21:01:53.630Z,15.40
2017-08-21T21:04:22.099Z,15.20
2017-08-21T21:06:49.645Z,15.20
2017-08-21T21:09:17.645Z,15.10
2017-08-21T21:11:45.950Z,15.10
2017-08-21T21:14:14.573Z,15.10
2017-08-21T21:16:42.147Z,15.00
2017-08-21T21:19:09.687Z,15.00
2017-08-21T21:21:37.279Z,15.00
2017-08-21T21:24:05.325Z,14.90
2017-08-21T21:26:32.885Z,14.90
2017-08-21T21:29:00.434Z,14.90
2017-08-21T21:31:28.005Z,14.90
2017-08-21T21:33:55.742Z,14.70
2017-08-21T21:36:23.276Z,14.60
2017-08-21T21:38:50.846Z,14.50
2017-08-21T21:41:18.457Z,14.50
2017-08-21T21:43:45.993Z,14.40
2017-08-21T21:46:15.066Z,14.50
2017-08-21T21:48:42.645Z,14.50
2017-08-21T21:51:10.207Z,14.50
2017-08-21T21:53:37.837Z,14.50
2017-08-21T21:56:05.425Z,14.60
2017-08-21T21:58:32.966Z,14.50
2017-08-21T22:01:00.549Z,14.60
2017-08-21T22:03:28.089Z,14.50
2017-08-21T22:05:55.641Z,14.50
2017-08-21T22:08:23.260Z,14.40
2017-08-21T22:10:51.097Z,14.30
2017-08-21T22:13:18.645Z,14.30
2017-08-21T22:15:46.224Z,14.30
2017-08-21T22:18:14.620Z,14.30
2017-08-21T22:20:42.152Z,14.10
2017-08-21T22:23:09.741Z,13.90
2017-08-21T22:25:37.282Z,13.80
2017-08-21T22:28:04.825Z,13.80
2017-08-21T22:30:32.772Z,13.80
2017-08-21T22:33:00.317Z,13.70
2017-08-21T22:35:27.860Z,13.70
2017-08-21T22:37:56.193Z,13.60
2017-08-21T22:40:23.733Z,13.60
2017-08-21T22:42:51.275Z,13.60
2017-08-21T22:45:18.840Z,13.60
2017-08-21T22:47:46.385Z,13.50
2017-08-21T22:50:15.532Z,13.50
2017-08-21T22:52:43.134Z,13.50
2017-08-21T22:55:10.677Z,13.40
2017-08-21T22:57:38.220Z,13.50
2017-08-21T23:00:05.873Z,13.30
2017-08-21T23:02:44.154Z,13.50
2017-08-21T23:05:12.520Z,13.50
2017-08-21T23:07:40.069Z,13.60
2017-08-21T23:10:08.373Z,13.60
2017-08-21T23:12:36.172Z,13.60
2017-08-21T23:15:03.721Z,13.60
2017-08-21T23:17:31.263Z,13.50
2017-08-21T23:19:58.841Z,13.50
2017-08-21T23:22:26.385Z,13.50
2017-08-21T23:24:53.925Z,13.40
2017-08-21T23:27:21.486Z,13.20
2017-08-21T23:29:49.780Z,13.20
2017-08-21T23:32:17.317Z,13.20
2017-08-21T23:34:44.937Z,13.30
2017-08-21T23:37:12.489Z,13.30
2017-08-21T23:39:40.026Z,13.30
2017-08-21T23:42:07.605Z,13.30
2017-08-21T23:44:35.141Z,13.20
2017-08-21T23:47:02.678Z,13.00
2017-08-21T23:49:30.267Z,12.90
2017-08-21T23:51:57.813Z,13.00
2017-08-21T23:54:26.121Z,13.00
2017-08-21T23:56:53.706Z,13.00
2017-08-21T23:59:21.249Z,13.00
